createdAt,value
2016-05-28T00:00:03.595Z,85.3
2016-05-28T00:00:13.610Z,85.6
2016-05-28T00:00:23.610Z,85.4
2016-05-28T00:00:33.657Z,85.5
2016-05-28T00:00:43.626Z,85.4
2016-05-28T00:00:53.644Z,85.6
2016-05-28T00:01:03.644Z,85.6
2016-05-28T00:01:13.488Z,85.6
2016-05-28T00:01:23.519Z,85.6
2016-05-28T00:01:33.660Z,85.6
2016-05-28T00:01:43.676Z,85.5
2016-05-28T00:01:53.679Z,85.5
2016-05-28T00:02:03.679Z,85.5
2016-05-28T00:02:13.679Z,85.6
2016-05-28T00:02:23.694Z,85.4
2016-05-28T00:02:33.741Z,85.5
2016-05-28T00:02:43.710Z,85.4
2016-05-28T00:02:53.713Z,85.3
2016-05-28T00:03:03.713Z,85.3
2016-05-28T00:03:13.729Z,85.3
2016-05-28T00:03:23.744Z,85.2
2016-05-28T00:03:33.760Z,85.2
2016-05-28T00:03:43.760Z,85.4
2016-05-28T00:03:53.746Z,85.2
2016-05-28T00:04:03.824Z,85.5
2016-05-28T00:04:13.762Z,85.3
2016-05-28T00:04:23.777Z,85.2
2016-05-28T00:04:34.402Z,85.4
2016-05-28T00:04:44.231Z,85.3
2016-05-28T00:04:53.937Z,85.3
2016-05-28T00:05:03.968Z,85.5
2016-05-28T00:05:13.874Z,85.4
2016-05-28T00:05:24.405Z,85.4
2016-05-28T00:05:33.827Z,85.5
2016-05-28T00:05:43.843Z,85.2
2016-05-28T00:05:53.846Z,85.4
2016-05-28T00:06:03.877Z,85.8
2016-05-28T00:06:13.862Z,85.9
2016-05-28T00:06:23.721Z,85.8
2016-05-28T00:06:33.877Z,86
2016-05-28T00:06:43.908Z,85.7
2016-05-28T00:06:53.879Z,85.8
2016-05-28T00:07:03.926Z,85.8
2016-05-28T00:07:13.895Z,85.9
2016-05-28T00:07:23.910Z,86
2016-05-28T00:07:33.910Z,86.1
2016-05-28T00:07:43.926Z,86.1
2016-05-28T00:07:53.930Z,86
2016-05-28T00:08:03.930Z,86.3
2016-05-28T00:08:13.930Z,86.3
2016-05-28T00:08:23.946Z,86.1
2016-05-28T00:08:33.961Z,86.4
2016-05-28T00:08:43.961Z,86
2016-05-28T00:08:53.963Z,86.3
2016-05-28T00:09:03.963Z,86.4
2016-05-28T00:09:13.979Z,86.3
2016-05-28T00:09:23.995Z,86.4
2016-05-28T00:09:33.838Z,86.4
2016-05-28T00:09:43.995Z,86.3
2016-05-28T00:09:54.043Z,86.4
2016-05-28T00:10:04.012Z,86.2
2016-05-28T00:10:14.028Z,86.2
2016-05-28T00:10:24.012Z,86
2016-05-28T00:10:34.090Z,86.4
2016-05-28T00:10:44.059Z,86.7
2016-05-28T00:10:54.047Z,86.1
2016-05-28T00:11:04.047Z,86.2
2016-05-28T00:11:14.110Z,86.2
2016-05-28T00:11:24.079Z,86.1
2016-05-28T00:11:34.079Z,86.1
2016-05-28T00:11:44.079Z,86.2
2016-05-28T00:11:54.112Z,86.2
2016-05-28T00:12:04.096Z,86.2
2016-05-28T00:12:14.096Z,86.8
2016-05-28T00:12:24.112Z,86.5
2016-05-28T00:12:34.018Z,86.6
2016-05-28T00:12:44.128Z,86.4
2016-05-28T00:12:54.131Z,86.2
2016-05-28T00:13:04.146Z,86.2
2016-05-28T00:13:14.209Z,86.5
2016-05-28T00:13:24.146Z,86.4
2016-05-28T00:13:34.162Z,86.4
2016-05-28T00:13:44.162Z,86.4
2016-05-28T00:13:54.180Z,86.4
2016-05-28T00:14:04.165Z,86.5
2016-05-28T00:14:14.180Z,86.5
2016-05-28T00:14:24.243Z,86.2
2016-05-28T00:14:34.196Z,86.3
2016-05-28T00:14:44.196Z,86.4
2016-05-28T00:14:54.214Z,86.6
2016-05-28T00:15:04.229Z,86.7
2016-05-28T00:15:14.229Z,87
2016-05-28T00:15:24.229Z,86.9
2016-05-28T00:15:34.245Z,87.2
2016-05-28T00:15:44.292Z,86.9
2016-05-28T00:15:54.248Z,87
2016-05-28T00:16:04.295Z,87.1
2016-05-28T00:16:14.264Z,87
2016-05-28T00:16:24.357Z,86.9
2016-05-28T00:16:34.279Z,86.8
2016-05-28T00:16:44.295Z,86.9
2016-05-28T00:16:54.297Z,87.1
2016-05-28T00:17:04.312Z,86.8
2016-05-28T00:17:14.312Z,86.8
2016-05-28T00:17:24.375Z,86.7
2016-05-28T00:17:34.344Z,86.9
2016-05-28T00:17:44.359Z,86.6
2016-05-28T00:17:54.331Z,86.7
2016-05-28T00:18:04.425Z,87.7
2016-05-28T00:18:14.347Z,87.7
2016-05-28T00:18:24.440Z,87.7
2016-05-28T00:18:34.378Z,87.3
2016-05-28T00:18:44.440Z,86.8
2016-05-28T00:18:54.381Z,87.1
2016-05-28T00:19:04.397Z,86.6
2016-05-28T00:19:14.381Z,86.8
2016-05-28T00:19:24.709Z,86.7
2016-05-28T00:19:34.631Z,86.8
2016-05-28T00:19:44.443Z,86.8
2016-05-28T00:19:54.384Z,86.8
2016-05-28T00:20:04.431Z,86.5
2016-05-28T00:20:14.603Z,87
2016-05-28T00:20:24.290Z,87.1
2016-05-28T00:20:34.462Z,86.8
2016-05-28T00:20:44.321Z,86.7
2016-05-28T00:20:54.464Z,86.9
2016-05-28T00:21:04.480Z,86.8
2016-05-28T00:21:14.511Z,87.2
2016-05-28T00:21:24.495Z,87
2016-05-28T00:21:34.495Z,86.7
2016-05-28T00:21:44.495Z,86.9
2016-05-28T00:21:54.498Z,87
2016-05-28T00:22:04.498Z,86.9
2016-05-28T00:22:14.514Z,87
2016-05-28T00:22:24.530Z,86.8
2016-05-28T00:22:34.545Z,87.7
2016-05-28T00:22:44.530Z,87.4
2016-05-28T00:22:54.579Z,87.5
2016-05-28T00:23:04.548Z,87.3
2016-05-28T00:23:14.876Z,87.4
2016-05-28T00:23:24.564Z,87.4
2016-05-28T00:23:34.579Z,87.4
2016-05-28T00:23:44.579Z,87.7
2016-05-28T00:23:54.442Z,87.7
2016-05-28T00:24:04.598Z,87.3
2016-05-28T00:24:14.614Z,87.4
2016-05-28T00:24:24.614Z,87.3
2016-05-28T00:24:34.645Z,87.4
2016-05-28T00:24:44.614Z,87.4
2016-05-28T00:24:54.663Z,87.5
2016-05-28T00:25:04.631Z,87.3
2016-05-28T00:25:14.678Z,87.5
2016-05-28T00:25:24.647Z,87.6
2016-05-28T00:25:34.756Z,87
2016-05-28T00:25:44.678Z,87.4
2016-05-28T00:25:54.711Z,87.9
2016-05-28T00:26:04.680Z,87.8
2016-05-28T00:26:14.571Z,87.8
2016-05-28T00:26:24.540Z,87.8
2016-05-28T00:26:34.711Z,88
2016-05-28T00:26:44.696Z,88.3
2016-05-28T00:26:54.715Z,88.1
2016-05-28T00:27:04.715Z,88.2
2016-05-28T00:27:14.715Z,87.9
2016-05-28T00:27:24.731Z,88.3
2016-05-28T00:27:34.731Z,88
2016-05-28T00:27:44.731Z,87.8
2016-05-28T00:27:54.686Z,87.8
2016-05-28T00:28:04.749Z,88.3
2016-05-28T00:28:14.764Z,88.2
2016-05-28T00:28:24.764Z,87.9
2016-05-28T00:28:34.780Z,88
2016-05-28T00:28:44.796Z,88.2
2016-05-28T00:28:54.799Z,87.7
2016-05-28T00:29:04.799Z,87.7
2016-05-28T00:29:14.799Z,87.8
2016-05-28T00:29:24.799Z,87.8
2016-05-28T00:29:34.658Z,87.8
2016-05-28T00:29:44.892Z,87.9
2016-05-28T00:29:54.833Z,87.9
2016-05-28T00:30:04.848Z,87.7
2016-05-28T00:30:14.848Z,87.8
2016-05-28T00:30:24.692Z,87.7
2016-05-28T00:30:34.848Z,87.8
2016-05-28T00:30:44.864Z,88.1
2016-05-28T00:30:54.866Z,87.9
2016-05-28T00:31:04.913Z,88
2016-05-28T00:31:14.929Z,88.1
2016-05-28T00:31:24.757Z,88.2
2016-05-28T00:31:34.897Z,88.1
2016-05-28T00:31:44.991Z,88.1
2016-05-28T00:31:54.932Z,88.3
2016-05-28T00:32:04.916Z,88.3
2016-05-28T00:32:14.963Z,88.2
2016-05-28T00:32:24.994Z,88.2
2016-05-28T00:32:34.947Z,88.1
2016-05-28T00:32:44.963Z,88.2
2016-05-28T00:32:54.950Z,88.2
2016-05-28T00:33:05.028Z,88.2
2016-05-28T00:33:14.966Z,88.1
2016-05-28T00:33:24.825Z,88.2
2016-05-28T00:33:34.997Z,88.1
2016-05-28T00:33:45.075Z,87.9
2016-05-28T00:33:54.999Z,88
2016-05-28T00:34:04.999Z,87.8
2016-05-28T00:34:14.999Z,87.7
2016-05-28T00:34:25.171Z,88.4
2016-05-28T00:34:35.046Z,88.2
2016-05-28T00:34:45.030Z,88.3
2016-05-28T00:34:55.565Z,88.3
2016-05-28T00:35:05.049Z,88.8
2016-05-28T00:35:15.049Z,88.6
2016-05-28T00:35:25.065Z,88.5
2016-05-28T00:35:35.065Z,88.7
2016-05-28T00:35:45.080Z,88.8
2016-05-28T00:35:55.083Z,88.3
2016-05-28T00:36:05.083Z,88.8
2016-05-28T00:36:15.083Z,88.8
2016-05-28T00:36:25.099Z,88.6
2016-05-28T00:36:35.099Z,88.6
2016-05-28T00:36:45.114Z,88.3
2016-05-28T00:36:55.117Z,88.8
2016-05-28T00:37:05.149Z,88.4
2016-05-28T00:37:15.149Z,88.8
2016-05-28T00:37:25.133Z,89
2016-05-28T00:37:35.180Z,88.8
2016-05-28T00:37:45.149Z,88.8
2016-05-28T00:37:55.182Z,88.7
2016-05-28T00:38:05.166Z,88.9
2016-05-28T00:38:15.182Z,88.5
2016-05-28T00:38:25.166Z,88.9
2016-05-28T00:38:35.182Z,89
2016-05-28T00:38:45.182Z,88.8
2016-05-28T00:38:55.247Z,88.8
2016-05-28T00:39:05.216Z,89.5
2016-05-28T00:39:15.216Z,89
2016-05-28T00:39:25.216Z,89
2016-05-28T00:39:35.232Z,89
2016-05-28T00:39:45.232Z,89
2016-05-28T00:39:55.234Z,89.3
2016-05-28T00:40:05.249Z,88.9
2016-05-28T00:40:15.265Z,88.9
2016-05-28T00:40:25.249Z,88.9
2016-05-28T00:40:35.265Z,89
2016-05-28T00:40:45.265Z,89
2016-05-28T00:40:55.284Z,89.2
2016-05-28T00:41:05.284Z,89.2
2016-05-28T00:41:15.284Z,89.3
2016-05-28T00:41:25.315Z,89.3
2016-05-28T00:41:35.315Z,89.4
2016-05-28T00:41:45.315Z,89.2
2016-05-28T00:41:55.318Z,89
2016-05-28T00:42:05.334Z,89
2016-05-28T00:42:15.334Z,89
2016-05-28T00:42:25.349Z,89.2
2016-05-28T00:42:35.349Z,89.3
2016-05-28T00:42:45.349Z,88.8
2016-05-28T00:42:55.368Z,88.6
2016-05-28T00:43:05.383Z,88.8
2016-05-28T00:43:15.383Z,89.1
2016-05-28T00:43:25.383Z,88.8
2016-05-28T00:43:35.399Z,88.8
2016-05-28T00:43:45.243Z,88.7
2016-05-28T00:43:55.401Z,88.7
2016-05-28T00:44:05.417Z,88.8
2016-05-28T00:44:15.417Z,88.8
2016-05-28T00:44:25.448Z,88.9
2016-05-28T00:44:35.432Z,88.8
2016-05-28T00:44:45.448Z,88.8
2016-05-28T00:44:55.451Z,88.8
2016-05-28T00:45:05.451Z,89.2
2016-05-28T00:45:15.467Z,89.1
2016-05-28T00:45:25.467Z,89.1
2016-05-28T00:45:35.482Z,89.1
2016-05-28T00:45:45.498Z,89.1
2016-05-28T00:45:55.485Z,89
2016-05-28T00:46:05.501Z,89.9
2016-05-28T00:46:15.501Z,89.8
2016-05-28T00:46:25.532Z,89.5
2016-05-28T00:46:35.516Z,89.4
2016-05-28T00:46:45.516Z,89.6
2016-05-28T00:46:55.535Z,89.2
2016-05-28T00:47:05.535Z,89.4
2016-05-28T00:47:15.582Z,89.4
2016-05-28T00:47:25.551Z,89.2
2016-05-28T00:47:35.410Z,89.5
2016-05-28T00:47:45.566Z,89.3
2016-05-28T00:47:55.584Z,89.8
2016-05-28T00:48:05.600Z,89.8
2016-05-28T00:48:15.584Z,89.6
2016-05-28T00:48:25.600Z,89.8
2016-05-28T00:48:35.443Z,89.6
2016-05-28T00:48:45.600Z,89.8
2016-05-28T00:48:55.618Z,89.4
2016-05-28T00:49:05.618Z,89.4
2016-05-28T00:49:15.634Z,89.5
2016-05-28T00:49:25.649Z,89.3
2016-05-28T00:49:35.478Z,89.4
2016-05-28T00:49:46.009Z,89.6
2016-05-28T00:49:55.495Z,89.4
2016-05-28T00:50:05.823Z,89.8
2016-05-28T00:50:15.667Z,89.6
2016-05-28T00:50:25.683Z,89.5
2016-05-28T00:50:35.667Z,89.6
2016-05-28T00:50:45.683Z,89.6
2016-05-28T00:50:55.686Z,89.4
2016-05-28T00:51:05.701Z,89.5
2016-05-28T00:51:15.561Z,89.8
2016-05-28T00:51:25.733Z,89.6
2016-05-28T00:51:35.717Z,89.8
2016-05-28T00:51:45.733Z,89.4
2016-05-28T00:51:55.736Z,89.6
2016-05-28T00:52:05.736Z,89.8
2016-05-28T00:52:15.751Z,89.6
2016-05-28T00:52:25.751Z,89.6
2016-05-28T00:52:35.751Z,89.5
2016-05-28T00:52:45.767Z,89.6
2016-05-28T00:52:55.800Z,89.6
2016-05-28T00:53:05.784Z,89.6
2016-05-28T00:53:15.784Z,89.9
2016-05-28T00:53:25.644Z,89.9
2016-05-28T00:53:35.816Z,89.9
2016-05-28T00:53:45.800Z,89.9
2016-05-28T00:53:55.834Z,89.5
2016-05-28T00:54:05.834Z,89.6
2016-05-28T00:54:15.834Z,89.9
2016-05-28T00:54:25.834Z,89.5
2016-05-28T00:54:35.834Z,89.5
2016-05-28T00:54:45.850Z,89.9
2016-05-28T00:54:55.853Z,89.9
2016-05-28T00:55:05.869Z,89.9
2016-05-28T00:55:15.869Z,89.9
2016-05-28T00:55:25.869Z,89.8
2016-05-28T00:55:35.744Z,89.9
2016-05-28T00:55:45.900Z,89.8
2016-05-28T00:55:55.902Z,89.7
2016-05-28T00:56:05.902Z,89.6
2016-05-28T00:56:15.917Z,89.7
2016-05-28T00:56:25.917Z,90.2
2016-05-28T00:56:35.917Z,90.1
2016-05-28T00:56:45.777Z,90.1
2016-05-28T00:56:55.953Z,90
2016-05-28T00:57:05.953Z,90.2
2016-05-28T00:57:15.953Z,90.2
2016-05-28T00:57:25.968Z,90
2016-05-28T00:57:35.812Z,90.2
2016-05-28T00:57:45.968Z,89.6
2016-05-28T00:57:55.986Z,89.7
2016-05-28T00:58:06.048Z,89.6
2016-05-28T00:58:16.002Z,90.1
2016-05-28T00:58:26.002Z,90.3
2016-05-28T00:58:36.002Z,90.1
2016-05-28T00:58:46.095Z,90.2
2016-05-28T00:58:56.019Z,90.1
2016-05-28T00:59:06.035Z,90
2016-05-28T00:59:16.019Z,90.3
2016-05-28T00:59:26.082Z,90
2016-05-28T00:59:35.894Z,90.6
2016-05-28T00:59:46.050Z,90.4
2016-05-28T00:59:56.070Z,90.4
2016-05-28T01:00:06.133Z,90.4
2016-05-28T01:00:16.070Z,90.4
2016-05-28T01:00:26.086Z,90.4
2016-05-28T01:00:36.086Z,90.5
2016-05-28T01:00:46.101Z,90.6
2016-05-28T01:00:56.103Z,90.6
2016-05-28T01:01:06.119Z,90.7
2016-05-28T01:01:16.119Z,90.8
2016-05-28T01:01:26.135Z,90.8
2016-05-28T01:01:36.135Z,90.5
2016-05-28T01:01:46.135Z,90.6
2016-05-28T01:01:56.152Z,90.6
2016-05-28T01:02:06.152Z,90.7
2016-05-28T01:02:16.152Z,90.4
2016-05-28T01:02:26.168Z,90.4
2016-05-28T01:02:36.168Z,90.5
2016-05-28T01:02:46.183Z,90.4
2016-05-28T01:02:56.186Z,90.4
2016-05-28T01:03:06.186Z,90.7
2016-05-28T01:03:16.202Z,90.6
2016-05-28T01:03:26.077Z,90.5
2016-05-28T01:03:36.202Z,90.5
2016-05-28T01:03:46.218Z,90.5
2016-05-28T01:03:56.236Z,90.8
2016-05-28T01:04:06.236Z,90.5
2016-05-28T01:04:16.236Z,90.6
2016-05-28T01:04:26.408Z,90.6
2016-05-28T01:04:36.252Z,90.6
2016-05-28T01:04:46.674Z,89.9
2016-05-28T01:04:56.755Z,90.4
2016-05-28T01:05:06.271Z,90.5
2016-05-28T01:05:16.192Z,90.3
2016-05-28T01:05:26.286Z,90.1
2016-05-28T01:05:36.286Z,90.5
2016-05-28T01:05:46.302Z,90.4
2016-05-28T01:05:56.351Z,90.4
2016-05-28T01:06:06.304Z,90.4
2016-05-28T01:06:16.319Z,90.6
2016-05-28T01:06:26.319Z,89.9
2016-05-28T01:06:36.366Z,90.6
2016-05-28T01:06:46.335Z,90
2016-05-28T01:06:56.369Z,90
2016-05-28T01:07:06.354Z,90.1
2016-05-28T01:07:16.244Z,90.4
2016-05-28T01:07:26.369Z,90.2
2016-05-28T01:07:36.369Z,90.3
2016-05-28T01:07:46.385Z,90.7
2016-05-28T01:07:56.466Z,90.5
2016-05-28T01:08:06.388Z,90.5
2016-05-28T01:08:16.388Z,90.4
2016-05-28T01:08:26.404Z,90.9
2016-05-28T01:08:36.435Z,91.2
2016-05-28T01:08:46.419Z,90.9
2016-05-28T01:08:56.438Z,91.1
2016-05-28T01:09:06.360Z,91.2
2016-05-28T01:09:16.453Z,91.1
2016-05-28T01:09:26.453Z,90.9
2016-05-28T01:09:36.516Z,91.1
2016-05-28T01:09:46.610Z,90.9
2016-05-28T01:09:56.472Z,91
2016-05-28T01:10:06.613Z,90.9
2016-05-28T01:10:16.331Z,91.1
2016-05-28T01:10:26.503Z,91
2016-05-28T01:10:36.363Z,90.9
2016-05-28T01:10:46.519Z,91.1
2016-05-28T01:10:56.520Z,90.8
2016-05-28T01:11:06.520Z,90.8
2016-05-28T01:11:16.598Z,90.8
2016-05-28T01:11:26.567Z,91.5
2016-05-28T01:11:36.536Z,91.5
2016-05-28T01:11:46.442Z,90.9
2016-05-28T01:11:56.429Z,91.2
2016-05-28T01:12:06.601Z,91.1
2016-05-28T01:12:16.570Z,91
2016-05-28T01:12:26.679Z,90.9
2016-05-28T01:12:36.632Z,90.8
2016-05-28T01:12:46.445Z,91.5
2016-05-28T01:12:56.588Z,91.5
2016-05-28T01:13:06.682Z,91.1
2016-05-28T01:13:16.682Z,91.1
2016-05-28T01:13:26.463Z,91.6
2016-05-28T01:13:36.620Z,91.5
2016-05-28T01:13:46.713Z,91.5
2016-05-28T01:13:56.623Z,91.5
2016-05-28T01:14:06.701Z,91.5
2016-05-28T01:14:16.654Z,91.4
2016-05-28T01:14:26.685Z,92
2016-05-28T01:14:36.716Z,91.2
2016-05-28T01:14:46.670Z,91.2
2016-05-28T01:14:56.672Z,90.8
2016-05-28T01:15:06.734Z,91.1
2016-05-28T01:15:16.547Z,90.8
2016-05-28T01:15:26.687Z,90.7
2016-05-28T01:15:36.765Z,90.8
2016-05-28T01:15:46.765Z,91.5
2016-05-28T01:15:56.754Z,91.5
2016-05-28T01:16:06.816Z,91.1
2016-05-28T01:16:16.566Z,91.2
2016-05-28T01:16:26.738Z,91.6
2016-05-28T01:16:36.754Z,91.1
2016-05-28T01:16:46.754Z,91.6
2016-05-28T01:16:56.771Z,91.6
2016-05-28T01:17:06.756Z,91.7
2016-05-28T01:17:16.834Z,91.7
2016-05-28T01:17:26.771Z,91.2
2016-05-28T01:17:36.803Z,91.6
2016-05-28T01:17:46.803Z,91.4
2016-05-28T01:17:56.837Z,91.6
2016-05-28T01:18:06.649Z,91.4
2016-05-28T01:18:16.852Z,91.3
2016-05-28T01:18:26.806Z,91.3
2016-05-28T01:18:36.868Z,91.5
2016-05-28T01:18:46.821Z,91.6
2016-05-28T01:18:56.854Z,91.6
2016-05-28T01:19:06.854Z,91.7
2016-05-28T01:19:16.901Z,91.7
2016-05-28T01:19:26.979Z,91.5
2016-05-28T01:19:36.886Z,91.4
2016-05-28T01:19:47.214Z,91.3
2016-05-28T01:19:57.389Z,91.3
2016-05-28T01:20:06.889Z,91.1
2016-05-28T01:20:16.889Z,91.2
2016-05-28T01:20:26.998Z,91
2016-05-28T01:20:36.920Z,91.2
2016-05-28T01:20:46.920Z,91.1
2016-05-28T01:20:56.923Z,91.3
2016-05-28T01:21:06.939Z,91.3
2016-05-28T01:21:16.939Z,91.5
2016-05-28T01:21:26.939Z,91.1
2016-05-28T01:21:36.939Z,91.8
2016-05-28T01:21:46.954Z,91.3
2016-05-28T01:21:56.972Z,91.2
2016-05-28T01:22:06.956Z,91.2
2016-05-28T01:22:16.972Z,91.2
2016-05-28T01:22:27.081Z,91.2
2016-05-28T01:22:36.987Z,91.2
2016-05-28T01:22:47.003Z,91.7
2016-05-28T01:22:56.990Z,91.2
2016-05-28T01:23:07.256Z,91.3
2016-05-28T01:23:17.006Z,91.3
2016-05-28T01:23:27.022Z,90.9
2016-05-28T01:23:37.022Z,91
2016-05-28T01:23:47.115Z,91.1
2016-05-28T01:23:57.040Z,91.3
2016-05-28T01:24:07.056Z,90.9
2016-05-28T01:24:17.056Z,91.2
2016-05-28T01:24:27.072Z,91.3
2016-05-28T01:24:37.056Z,91.2
2016-05-28T01:24:47.072Z,91.2
2016-05-28T01:24:57.105Z,92.1
2016-05-28T01:25:07.105Z,91.2
2016-05-28T01:25:17.105Z,91.1
2016-05-28T01:25:27.105Z,91
2016-05-28T01:25:37.105Z,91.3
2016-05-28T01:25:47.120Z,91.3
2016-05-28T01:25:57.123Z,91.6
2016-05-28T01:26:07.139Z,91.6
2016-05-28T01:26:17.139Z,91.8
2016-05-28T01:26:27.155Z,91.8
2016-05-28T01:26:37.139Z,91.4
2016-05-28T01:26:47.155Z,91.4
2016-05-28T01:26:57.157Z,91.7
2016-05-28T01:27:07.172Z,91.7
2016-05-28T01:27:17.172Z,91.5
2016-05-28T01:27:27.188Z,91.6
2016-05-28T01:27:37.188Z,92
2016-05-28T01:27:47.188Z,91.6
2016-05-28T01:27:57.208Z,91.5
2016-05-28T01:28:07.239Z,91.3
2016-05-28T01:28:17.223Z,91.3
2016-05-28T01:28:27.223Z,91.3
2016-05-28T01:28:37.223Z,91.7
2016-05-28T01:28:47.239Z,91.6
2016-05-28T01:28:57.476Z,91.3
2016-05-28T01:29:07.242Z,91.6
2016-05-28T01:29:17.257Z,91.4
2016-05-28T01:29:27.273Z,91.3
2016-05-28T01:29:37.273Z,91.3
2016-05-28T01:29:47.289Z,91.7
2016-05-28T01:29:57.291Z,91.6
2016-05-28T01:30:07.322Z,91.5
2016-05-28T01:30:17.306Z,91.8
2016-05-28T01:30:27.306Z,91.2
2016-05-28T01:30:37.322Z,91.4
2016-05-28T01:30:47.322Z,91.6
2016-05-28T01:30:57.356Z,91.6
2016-05-28T01:31:07.341Z,91.2
2016-05-28T01:31:17.184Z,91.1
2016-05-28T01:31:27.356Z,91.3
2016-05-28T01:31:37.372Z,91.5
2016-05-28T01:31:47.356Z,91.8
2016-05-28T01:31:57.218Z,91.7
2016-05-28T01:32:07.374Z,91.6
2016-05-28T01:32:17.421Z,91.6
2016-05-28T01:32:27.389Z,91.7
2016-05-28T01:32:37.389Z,91.8
2016-05-28T01:32:47.405Z,91.8
2016-05-28T01:32:57.408Z,91.7
2016-05-28T01:33:07.424Z,91.8
2016-05-28T01:33:17.408Z,91.2
2016-05-28T01:33:27.424Z,91.2
2016-05-28T01:33:37.455Z,91.2
2016-05-28T01:33:47.439Z,91.9
2016-05-28T01:33:57.458Z,91.1
2016-05-28T01:34:07.458Z,91.2
2016-05-28T01:34:17.333Z,91.2
2016-05-28T01:34:27.474Z,91.7
2016-05-28T01:34:37.317Z,91.2
2016-05-28T01:34:47.927Z,91
2016-05-28T01:34:57.491Z,91.1
2016-05-28T01:35:07.507Z,91.3
2016-05-28T01:35:17.491Z,91
2016-05-28T01:35:27.366Z,91.2
2016-05-28T01:35:37.522Z,91.6
2016-05-28T01:35:47.522Z,91.7
2016-05-28T01:35:57.541Z,91.6
2016-05-28T01:36:07.525Z,91.9
2016-05-28T01:36:17.557Z,92.2
2016-05-28T01:36:27.557Z,92.1
2016-05-28T01:36:37.557Z,92
2016-05-28T01:36:47.588Z,91.9
2016-05-28T01:36:57.450Z,92.1
2016-05-28T01:37:07.575Z,92
2016-05-28T01:37:17.591Z,91.9
2016-05-28T01:37:27.591Z,92.1
2016-05-28T01:37:37.591Z,92
2016-05-28T01:37:47.607Z,91.7
2016-05-28T01:37:57.624Z,92
2016-05-28T01:38:07.624Z,91.9
2016-05-28T01:38:17.624Z,91.9
2016-05-28T01:38:27.640Z,92
2016-05-28T01:38:37.624Z,91.8
2016-05-28T01:38:47.640Z,92
2016-05-28T01:38:57.658Z,92.1
2016-05-28T01:39:07.658Z,92
2016-05-28T01:39:17.690Z,92
2016-05-28T01:39:27.674Z,91.9
2016-05-28T01:39:37.674Z,92.1
2016-05-28T01:39:47.705Z,91.9
2016-05-28T01:39:57.692Z,92.1
2016-05-28T01:40:07.707Z,91.8
2016-05-28T01:40:17.739Z,91.9
2016-05-28T01:40:27.707Z,91.9
2016-05-28T01:40:37.723Z,91.9
2016-05-28T01:40:47.723Z,91.6
2016-05-28T01:40:57.743Z,91.5
2016-05-28T01:41:07.743Z,91.6
2016-05-28T01:41:17.743Z,91.6
2016-05-28T01:41:27.758Z,91.6
2016-05-28T01:41:37.758Z,91.7
2016-05-28T01:41:47.774Z,91.3
2016-05-28T01:41:57.776Z,91.6
2016-05-28T01:42:07.791Z,91.3
2016-05-28T01:42:17.791Z,91.3
2016-05-28T01:42:27.791Z,91.5
2016-05-28T01:42:37.807Z,91.5
2016-05-28T01:42:47.807Z,91.8
2016-05-28T01:42:57.826Z,91.4
2016-05-28T01:43:07.826Z,91.3
2016-05-28T01:43:17.826Z,91.8
2016-05-28T01:43:27.841Z,91.7
2016-05-28T01:43:37.841Z,91.6
2016-05-28T01:43:47.857Z,91.3
2016-05-28T01:43:57.860Z,91.5
2016-05-28T01:44:07.719Z,91.6
2016-05-28T01:44:17.876Z,91.9
2016-05-28T01:44:27.876Z,92
2016-05-28T01:44:37.735Z,91.9
2016-05-28T01:44:47.907Z,92.1
2016-05-28T01:44:57.893Z,92.2
2016-05-28T01:45:07.893Z,92
2016-05-28T01:45:17.909Z,92.2
2016-05-28T01:45:27.924Z,92.3
2016-05-28T01:45:37.924Z,92.3
2016-05-28T01:45:47.924Z,92.3
2016-05-28T01:45:57.943Z,92.1
2016-05-28T01:46:07.943Z,92.3
2016-05-28T01:46:17.959Z,92.3
2016-05-28T01:46:27.959Z,92
2016-05-28T01:46:37.959Z,92.2
2016-05-28T01:46:47.974Z,92.3
2016-05-28T01:46:57.977Z,91.9
2016-05-28T01:47:07.993Z,91.9
2016-05-28T01:47:18.009Z,92
2016-05-28T01:47:28.305Z,92
2016-05-28T01:47:38.009Z,91.9
2016-05-28T01:47:48.009Z,91.9
2016-05-28T01:47:58.026Z,92.1
2016-05-28T01:48:08.042Z,92
2016-05-28T01:48:18.057Z,92.2
2016-05-28T01:48:28.042Z,92.2
2016-05-28T01:48:38.042Z,92.3
2016-05-28T01:48:48.089Z,92.2
2016-05-28T01:48:58.060Z,92.3
2016-05-28T01:49:08.060Z,92.2
2016-05-28T01:49:18.076Z,92.2
2016-05-28T01:49:28.248Z,92.2
2016-05-28T01:49:38.592Z,92.2
2016-05-28T01:49:48.092Z,92.2
2016-05-28T01:49:58.954Z,92.3
2016-05-28T01:50:08.157Z,92.1
2016-05-28T01:50:18.126Z,92.2
2016-05-28T01:50:28.126Z,92.2
2016-05-28T01:50:38.126Z,92
2016-05-28T01:50:48.188Z,92.1
2016-05-28T01:50:58.144Z,92.1
2016-05-28T01:51:08.144Z,92
2016-05-28T01:51:18.190Z,92.1
2016-05-28T01:51:28.159Z,92.1
2016-05-28T01:51:38.159Z,92.1
2016-05-28T01:51:48.175Z,92.2
2016-05-28T01:51:58.193Z,92.2
2016-05-28T01:52:08.209Z,92
2016-05-28T01:52:18.193Z,92.5
2016-05-28T01:52:28.209Z,92.7
2016-05-28T01:52:38.225Z,92.8
2016-05-28T01:52:48.225Z,92.7
2016-05-28T01:52:58.211Z,92.6
2016-05-28T01:53:08.227Z,92.1
2016-05-28T01:53:18.258Z,92.6
2016-05-28T01:53:28.242Z,92.1
2016-05-28T01:53:38.289Z,92.4
2016-05-28T01:53:48.242Z,92
2016-05-28T01:53:58.292Z,92.8
2016-05-28T01:54:08.261Z,92.7
2016-05-28T01:54:18.277Z,92
2016-05-28T01:54:28.277Z,92.7
2016-05-28T01:54:38.589Z,92.8
2016-05-28T01:54:48.152Z,92.6
2016-05-28T01:54:58.311Z,92.6
2016-05-28T01:55:08.311Z,93
2016-05-28T01:55:18.405Z,92.5
2016-05-28T01:55:28.326Z,92.6
2016-05-28T01:55:38.326Z,92.5
2016-05-28T01:55:48.342Z,92.6
2016-05-28T01:55:58.392Z,92.8
2016-05-28T01:56:08.361Z,92.6
2016-05-28T01:56:18.361Z,92.6
2016-05-28T01:56:28.361Z,92.5
2016-05-28T01:56:38.408Z,92.6
2016-05-28T01:56:48.376Z,92.6
2016-05-28T01:56:58.395Z,92.6
2016-05-28T01:57:08.395Z,93
2016-05-28T01:57:18.442Z,93
2016-05-28T01:57:28.426Z,93
2016-05-28T01:57:38.411Z,92.5
2016-05-28T01:57:48.411Z,92.5
2016-05-28T01:57:58.444Z,92.6
2016-05-28T01:58:08.428Z,92.5
2016-05-28T01:58:18.444Z,93
2016-05-28T01:58:28.444Z,93
2016-05-28T01:58:38.506Z,92.4
2016-05-28T01:58:48.459Z,92.8
2016-05-28T01:58:58.478Z,93.1
2016-05-28T01:59:08.478Z,93.1
2016-05-28T01:59:18.494Z,92.5
2016-05-28T01:59:28.478Z,92.6
2016-05-28T01:59:38.494Z,92.7
2016-05-28T01:59:48.525Z,92.4
2016-05-28T01:59:58.497Z,92.2
2016-05-28T02:00:08.590Z,92.8
2016-05-28T02:00:18.528Z,92.7
2016-05-28T02:00:28.544Z,92.2
2016-05-28T02:00:38.544Z,92
2016-05-28T02:00:48.622Z,92.3
2016-05-28T02:00:58.561Z,92
2016-05-28T02:01:08.561Z,92.2
2016-05-28T02:01:18.561Z,92.2
2016-05-28T02:01:28.577Z,92.2
2016-05-28T02:01:38.577Z,92
2016-05-28T02:01:48.436Z,92
2016-05-28T02:01:58.595Z,91.8
2016-05-28T02:02:08.658Z,91.9
2016-05-28T02:02:18.611Z,92.1
2016-05-28T02:02:28.611Z,92.5
2016-05-28T02:02:38.611Z,92.2
2016-05-28T02:02:48.642Z,92.2
2016-05-28T02:02:58.644Z,92.2
2016-05-28T02:03:08.676Z,92.4
2016-05-28T02:03:18.644Z,92.2
2016-05-28T02:03:28.519Z,92.3
2016-05-28T02:03:38.660Z,92
2016-05-28T02:03:48.691Z,92.2
2016-05-28T02:03:58.679Z,92.2
2016-05-28T02:04:08.679Z,92.2
2016-05-28T02:04:18.694Z,92.2
2016-05-28T02:04:28.694Z,92.3
2016-05-28T02:04:38.757Z,92.7
2016-05-28T02:04:48.710Z,92.7
2016-05-28T02:04:58.572Z,92.4
2016-05-28T02:05:08.869Z,92.6
2016-05-28T02:05:18.822Z,92.8
2016-05-28T02:05:28.728Z,92.6
2016-05-28T02:05:38.744Z,92.6
2016-05-28T02:05:48.775Z,92.6
2016-05-28T02:05:59.044Z,92.5
2016-05-28T02:06:08.763Z,92.6
2016-05-28T02:06:18.763Z,92.5
2016-05-28T02:06:28.778Z,92.6
2016-05-28T02:06:38.841Z,92.5
2016-05-28T02:06:48.794Z,92.6
2016-05-28T02:06:59.094Z,92.5
2016-05-28T02:07:08.797Z,92.8
2016-05-28T02:07:18.891Z,92.5
2016-05-28T02:07:28.813Z,92.6
2016-05-28T02:07:40.531Z,92.7
2016-05-28T02:07:48.828Z,92.7
2016-05-28T02:07:58.861Z,92.5
2016-05-28T02:08:08.846Z,92.6
2016-05-28T02:08:18.861Z,92.5
2016-05-28T02:08:28.861Z,92.2
2016-05-28T02:08:38.877Z,92.8
2016-05-28T02:08:48.861Z,92
2016-05-28T02:08:58.896Z,92.2
2016-05-28T02:09:08.880Z,92.7
2016-05-28T02:09:18.943Z,92.1
2016-05-28T02:09:28.911Z,92
2016-05-28T02:09:38.958Z,92.2
2016-05-28T02:09:48.911Z,92.1
2016-05-28T02:09:58.914Z,92.2
2016-05-28T02:10:08.930Z,92.3
2016-05-28T02:10:18.930Z,92.5
2016-05-28T02:10:28.946Z,92.1
2016-05-28T02:10:38.977Z,92.1
2016-05-28T02:10:48.946Z,92.3
2016-05-28T02:10:58.995Z,92.2
2016-05-28T02:11:08.964Z,92.2
2016-05-28T02:11:18.980Z,92.4
2016-05-28T02:11:29.011Z,92.4
2016-05-28T02:11:38.995Z,92.2
2016-05-28T02:11:48.995Z,92.2
2016-05-28T02:11:58.997Z,92.1
2016-05-28T02:12:09.013Z,92
2016-05-28T02:12:19.013Z,92.1
2016-05-28T02:12:29.060Z,91.8
2016-05-28T02:12:39.029Z,92
2016-05-28T02:12:49.044Z,92.2
2016-05-28T02:12:59.046Z,92
2016-05-28T02:13:09.062Z,92.1
2016-05-28T02:13:19.046Z,92.1
2016-05-28T02:13:29.046Z,91.8
2016-05-28T02:13:39.062Z,92
2016-05-28T02:13:49.140Z,92.3
2016-05-28T02:13:58.971Z,92.2
2016-05-28T02:14:09.096Z,92